createdAt,value
2019-03-09T00:04:29.473Z,36.00
2019-03-09T00:09:20.863Z,36.30
2019-03-09T00:14:12.268Z,37.00
2019-03-09T00:19:03.632Z,37.70
2019-03-09T00:23:55.085Z,37.30
2019-03-09T00:28:46.881Z,37.70
2019-03-09T00:33:37.847Z,37.70
2019-03-09T00:38:29.231Z,38.00
2019-03-09T00:43:20.697Z,38.70
2019-03-09T00:48:12.092Z,38.20
2019-03-09T00:53:03.489Z,38.50
2019-03-09T00:57:54.856Z,38.50
2019-03-09T01:02:46.290Z,38.30
2019-03-09T01:07:37.698Z,37.70
2019-03-09T01:12:29.100Z,38.20
2019-03-09T01:17:20.468Z,37.60
2019-03-09T01:22:11.918Z,37.50
2019-03-09T01:27:03.310Z,38.70
2019-03-09T01:31:54.726Z,38.90
2019-03-09T01:36:46.073Z,40.10
2019-03-09T01:41:37.492Z,40.20
2019-03-09T01:46:28.845Z,40.00
2019-03-09T01:51:20.314Z,40.70
2019-03-09T01:56:11.673Z,41.00
2019-03-09T02:01:03.084Z,41.90
2019-03-09T02:05:54.446Z,42.90
2019-03-09T02:10:45.969Z,43.00
2019-03-09T02:15:37.274Z,43.00
2019-03-09T02:20:28.622Z,43.60
2019-03-09T02:25:20.056Z,43.40
2019-03-09T02:30:11.458Z,43.70
2019-03-09T02:35:02.946Z,44.40
2019-03-09T02:39:54.266Z,44.60
2019-03-09T02:44:45.683Z,44.80
2019-03-09T02:49:37.092Z,45.90
2019-03-09T02:54:28.446Z,46.10
2019-03-09T03:04:11.248Z,47.20
2019-03-09T03:09:02.655Z,46.40
2019-03-09T03:13:54.108Z,46.20
2019-03-09T03:18:45.507Z,45.50
2019-03-09T03:23:36.877Z,44.80
2019-03-09T03:28:28.266Z,45.80
2019-03-09T03:33:19.653Z,45.10
2019-03-09T03:38:10.992Z,44.00
2019-03-09T03:43:02.452Z,44.10
2019-03-09T03:47:53.812Z,43.30
2019-03-09T03:52:45.216Z,42.20
2019-03-09T03:57:36.556Z,42.60
2019-03-09T04:02:27.972Z,41.30
2019-03-09T04:07:19.396Z,38.90
2019-03-09T04:12:10.775Z,38.20
2019-03-09T04:17:02.122Z,37.30
2019-03-09T04:21:53.578Z,36.10
2019-03-09T04:26:44.950Z,36.00
2019-03-09T04:31:36.407Z,35.90
2019-03-09T04:36:27.723Z,36.20
2019-03-09T04:41:19.207Z,36.70
2019-03-09T04:46:10.535Z,36.70
2019-03-09T04:51:01.949Z,36.80
2019-03-09T04:55:53.315Z,39.60
2019-03-09T05:00:44.726Z,39.40
2019-03-09T05:05:36.128Z,42.40
2019-03-09T05:10:32.028Z,43.80
2019-03-09T05:15:23.549Z,46.30
2019-03-09T05:20:14.923Z,48.40
2019-03-09T05:25:06.304Z,57.00
2019-03-09T05:29:59.931Z,67.70
2019-03-09T05:34:51.369Z,74.30
2019-03-09T05:39:42.691Z,80.60
2019-03-09T05:44:34.075Z,83.00
2019-03-09T05:49:27.728Z,87.00
2019-03-09T05:54:19.157Z,87.40
2019-03-09T05:59:12.847Z,88.80
2019-03-09T06:04:06.468Z,92.30
2019-03-09T06:08:57.915Z,92.30
2019-03-09T06:13:49.300Z,92.00
2019-03-09T06:18:42.907Z,92.70
2019-03-09T06:23:34.369Z,91.90
2019-03-09T06:28:27.967Z,92.10
2019-03-09T06:33:19.420Z,91.90
2019-03-09T06:38:10.830Z,90.30
2019-03-09T06:43:02.299Z,89.80
2019-03-09T06:47:53.669Z,88.00
2019-03-09T06:52:44.978Z,87.80
2019-03-09T06:57:38.716Z,86.80
2019-03-09T07:02:30.130Z,86.10
2019-03-09T07:07:21.548Z,85.10
2019-03-09T07:12:12.929Z,84.90
2019-03-09T07:17:04.258Z,84.70
2019-03-09T07:21:55.714Z,83.70
2019-03-09T07:26:47.119Z,82.60
2019-03-09T07:31:40.763Z,81.50
2019-03-09T07:36:32.407Z,78.70
2019-03-09T07:41:23.653Z,76.30
2019-03-09T07:46:15.061Z,71.40
2019-03-09T07:51:08.686Z,69.30
2019-03-09T07:56:04.624Z,67.30
2019-03-09T08:01:02.844Z,63.70
2019-03-09T08:05:56.488Z,62.70
2019-03-09T08:10:47.925Z,58.90
2019-03-09T08:15:39.346Z,58.70
2019-03-09T08:20:35.225Z,56.60
2019-03-09T08:25:26.705Z,55.30
2019-03-09T08:30:20.299Z,54.20
2019-03-09T08:35:11.737Z,53.10
2019-03-09T08:40:05.389Z,52.80
2019-03-09T08:44:56.774Z,53.70
2019-03-09T08:49:48.217Z,53.50
2019-03-09T08:54:41.918Z,53.90
2019-03-09T08:59:35.571Z,54.00
2019-03-09T09:04:29.219Z,52.50
2019-03-09T09:09:22.999Z,53.50
2019-03-09T09:14:14.431Z,52.20
2019-03-09T09:19:05.864Z,50.00
2019-03-09T09:23:59.471Z,48.40
2019-03-09T09:28:50.871Z,46.60
2019-03-09T09:33:42.348Z,46.50
2019-03-09T09:38:35.972Z,45.10
2019-03-09T09:43:27.388Z,46.30
2019-03-09T09:48:18.788Z,44.80
2019-03-09T09:53:10.152Z,44.50
2019-03-09T09:58:01.576Z,44.40
2019-03-09T10:02:52.949Z,43.30
2019-03-09T10:07:46.549Z,42.10
2019-03-09T10:12:37.994Z,41.70
2019-03-09T10:17:29.361Z,41.30
2019-03-09T10:22:23.008Z,41.70
2019-03-09T10:27:14.416Z,40.30
2019-03-09T10:32:05.859Z,39.00
2019-03-09T10:36:57.181Z,39.80
2019-03-09T10:41:50.820Z,38.70
2019-03-09T10:46:42.261Z,37.10
2019-03-09T10:51:33.665Z,35.20
2019-03-09T10:56:25.124Z,35.60
2019-03-09T11:01:16.454Z,34.40
2019-03-09T11:06:07.839Z,35.60
2019-03-09T11:10:59.517Z,35.00
2019-03-09T11:15:52.877Z,34.90
2019-03-09T11:20:46.531Z,33.80
2019-03-09T11:25:40.207Z,32.80
2019-03-09T11:30:31.578Z,33.70
2019-03-09T11:35:23.031Z,33.10
2019-03-09T11:40:14.403Z,33.10
2019-03-09T11:45:05.776Z,35.90
2019-03-09T11:49:59.409Z,32.90
2019-03-09T11:54:50.878Z,33.60
2019-03-09T11:59:47.273Z,34.30
2019-03-09T12:04:33.642Z,34.20
2019-03-09T12:09:25.046Z,35.20
2019-03-09T12:14:16.446Z,35.00
2019-03-09T12:19:07.851Z,34.30
2019-03-09T12:23:59.241Z,35.30
2019-03-09T12:28:50.630Z,35.50
2019-03-09T12:33:42.024Z,34.00
2019-03-09T12:38:35.698Z,34.30
2019-03-09T12:43:27.407Z,33.90
2019-03-09T12:48:18.585Z,34.20
2019-03-09T12:53:09.862Z,31.60
2019-03-09T12:58:03.502Z,33.70
2019-03-09T13:02:55.000Z,31.20
2019-03-09T13:07:46.366Z,30.00
2019-03-09T13:12:37.697Z,30.30
2019-03-09T13:17:29.163Z,32.50
2019-03-09T13:22:22.690Z,31.20
2019-03-09T13:27:14.147Z,30.20
2019-03-09T13:32:07.759Z,30.50
2019-03-09T13:36:59.156Z,32.00
2019-03-09T13:41:50.611Z,31.50
2019-03-09T13:46:44.162Z,32.70
2019-03-09T13:51:35.667Z,34.40
2019-03-09T13:56:27.000Z,35.70
2019-03-09T14:01:18.415Z,38.90
2019-03-09T14:06:09.786Z,41.60
2019-03-09T14:11:01.237Z,42.90
2019-03-09T14:15:54.771Z,46.50
2019-03-09T14:20:48.934Z,49.20
2019-03-09T14:25:39.917Z,48.90
2019-03-09T14:30:31.355Z,53.00
2019-03-09T14:35:22.755Z,50.90
2019-03-09T14:40:14.229Z,52.00
2019-03-09T14:50:01.432Z,51.10
2019-03-09T14:54:52.819Z,47.00
2019-03-09T14:59:44.247Z,46.60
2019-03-09T15:04:35.610Z,46.60
2019-03-09T15:09:27.007Z,46.00
2019-03-09T15:14:18.335Z,45.20
2019-03-09T15:19:11.944Z,46.40
2019-03-09T15:24:05.632Z,45.90
2019-03-09T15:28:59.307Z,46.80
2019-03-09T15:33:52.976Z,47.00
2019-03-09T15:38:44.435Z,48.70
2019-03-09T15:43:35.890Z,50.80
2019-03-09T15:53:20.952Z,51.80
2019-03-09T15:58:12.248Z,51.10
2019-03-09T16:03:03.947Z,50.90
2019-03-09T16:07:57.240Z,50.70
2019-03-09T16:12:48.705Z,48.20
2019-03-09T16:17:40.113Z,47.50
2019-03-09T16:22:31.528Z,47.00
2019-03-09T16:27:25.129Z,45.60
2019-03-09T16:32:16.517Z,43.70
2019-03-09T16:37:08.192Z,43.60
2019-03-09T16:41:59.381Z,42.80
2019-03-09T16:46:52.886Z,40.10
2019-03-09T16:51:46.615Z,41.20
2019-03-09T16:56:40.281Z,39.80
2019-03-09T17:01:33.948Z,40.80
2019-03-09T17:06:27.606Z,40.30
2019-03-09T17:11:19.010Z,39.40
2019-03-09T17:16:12.712Z,39.10
2019-03-09T17:21:06.397Z,39.10
2019-03-09T17:25:57.797Z,39.10
2019-03-09T17:30:49.268Z,39.50
2019-03-09T17:35:40.638Z,38.80
2019-03-09T17:40:32.118Z,37.30
2019-03-09T17:45:23.517Z,36.60
2019-03-09T17:50:14.866Z,36.10
2019-03-09T17:55:06.285Z,36.50
2019-03-09T17:59:59.935Z,35.00
2019-03-09T18:04:51.396Z,34.60
2019-03-09T18:09:45.023Z,35.20
2019-03-09T18:14:36.483Z,35.80
2019-03-09T18:19:27.920Z,36.60
2019-03-09T18:24:19.328Z,37.20
2019-03-09T18:29:10.732Z,36.40
2019-03-09T18:34:02.077Z,35.20
2019-03-09T18:38:53.445Z,34.90
2019-03-09T18:43:44.909Z,34.90
2019-03-09T18:48:36.296Z,34.60
2019-03-09T18:53:27.722Z,33.50
2019-03-09T18:58:21.470Z,33.30
2019-03-09T19:03:15.132Z,31.60
2019-03-09T19:08:06.543Z,32.50
2019-03-09T19:12:57.955Z,33.30
2019-03-09T19:17:49.382Z,31.90
2019-03-09T19:22:40.803Z,31.60
2019-03-09T19:27:32.245Z,31.30
2019-03-09T19:32:23.597Z,30.80
2019-03-09T19:37:14.999Z,30.90
2019-03-09T19:42:06.387Z,30.90
2019-03-09T19:46:57.724Z,30.80
2019-03-09T19:51:49.180Z,30.70
2019-03-09T19:56:40.532Z,30.50
2019-03-09T20:01:32.261Z,30.00
2019-03-09T20:06:23.395Z,29.80
2019-03-09T20:11:14.856Z,29.70
2019-03-09T20:16:06.371Z,29.70
2019-03-09T20:20:57.861Z,30.10
2019-03-09T20:25:49.228Z,29.70
2019-03-09T20:30:40.614Z,30.00
2019-03-09T20:35:34.220Z,29.90
2019-03-09T20:40:25.705Z,30.50
2019-03-09T20:45:17.054Z,29.70
2019-03-09T20:50:08.510Z,29.60
2019-03-09T20:54:59.919Z,30.30
2019-03-09T20:59:53.563Z,31.70
2019-03-09T21:04:47.180Z,31.80
2019-03-09T21:09:38.604Z,31.30
2019-03-09T21:14:30.171Z,31.30
2019-03-09T21:19:21.422Z,31.60
2019-03-09T21:24:12.883Z,31.90
2019-03-09T21:29:04.238Z,32.10
2019-03-09T21:33:55.686Z,32.20
2019-03-09T21:38:47.110Z,33.00
2019-03-09T21:43:38.518Z,33.90
2019-03-09T21:48:32.134Z,35.70
2019-03-09T21:53:23.610Z,35.40
2019-03-09T21:58:15.001Z,36.10
2019-03-09T22:03:06.426Z,36.40
2019-03-09T22:08:00.033Z,37.50
2019-03-09T22:12:51.535Z,38.40
2019-03-09T22:17:45.095Z,39.80
2019-03-09T22:22:36.566Z,39.70
2019-03-09T22:27:27.966Z,40.00
2019-03-09T22:32:20.182Z,41.30
2019-03-09T22:37:10.845Z,41.70
2019-03-09T22:42:04.396Z,42.20
2019-03-09T22:46:58.102Z,43.10
2019-03-09T22:51:49.532Z,43.60
2019-03-09T22:56:40.936Z,43.90
2019-03-09T23:01:32.374Z,43.90
2019-03-09T23:06:23.666Z,44.00
2019-03-09T23:11:15.122Z,44.60
2019-03-09T23:16:06.592Z,44.80
2019-03-09T23:20:57.992Z,45.50
2019-03-09T23:25:49.437Z,45.50
2019-03-09T23:30:43.246Z,45.50
2019-03-09T23:35:34.834Z,46.30
2019-03-09T23:40:26.260Z,45.80
2019-03-09T23:45:17.716Z,44.60
2019-03-09T23:50:09.062Z,44.00
2019-03-09T23:55:00.617Z,43.20
2019-03-09T23:59:51.876Z,43.00
